Time;durP1;ratioP1;P1;durP2;ratioP2;P2;SDS_P1;SDS_P2;PMS_P1;PMS_P2;Temp;Humidity;BMP_temperature;BMP_pressure;BME280_temperature;BME280_humidity;BME280_pressure;Samples;Min_cycle;Max_cycle;Signal;HPM_P1;HPM_P2
2022/04/26 03:37:44;;;;;;;7.05;3.90;;;;;;;;;;5019017;28;20060;-59
2022/04/26 03:40:10;;;;;;;6.68;3.65;;;;;;;;;;5021120;28;20136;-58
2022/04/26 03:42:37;;;;;;;4.25;3.42;;;;;;;;;;5021574;28;20501;-58
2022/04/26 03:45:10;;;;;;;6.22;4.05;;;;;;;;;;5018037;28;20084;-58
2022/04/26 03:47:36;;;;;;;7.35;4.40;;;;;;;;;;5020172;28;20481;-59
2022/04/26 03:50:03;;;;;;;5.80;4.20;;;;;;;;;;5016442;28;20085;-58
2022/04/26 03:52:37;;;;;;;12.10;4.95;;;;;;;;;;5016593;28;20136;-58
2022/04/26 03:55:03;;;;;;;6.93;3.97;;;;;;;;;;5022585;28;20477;-57
2022/04/26 03:57:30;;;;;;;8.93;4.07;;;;;;;;;;5025975;28;20076;-57
2022/04/26 03:59:57;;;;;;;6.65;3.55;;;;;;;;;;5024656;28;20064;-58
2022/04/26 04:02:24;;;;;;;7.63;3.13;;;;;;;;;;5022518;28;20069;-58
2022/04/26 04:04:50;;;;;;;7.90;3.75;;;;;;;;;;5022558;28;20057;-58
2022/04/26 04:07:17;;;;;;;8.17;4.03;;;;;;;;;;5019859;28;20084;-58
2022/04/26 04:09:43;;;;;;;8.13;3.65;;;;;;;;;;5018723;28;20081;-57
2022/04/26 04:12:11;;;;;;;6.88;3.90;;;;;;;;;;5022492;28;20128;-56
2022/04/26 04:14:37;;;;;;;;;;;;;;;;;;5025323;28;20169;-56
2022/04/26 04:17:05;;;;;;;6.68;4.05;;;;;;;;;;5023795;28;19972;-58
2022/04/26 04:19:32;;;;;;;6.20;3.42;;;;;;;;;;5019623;28;20092;-57
2022/04/26 04:22:00;;;;;;;7.57;3.85;;;;;;;;;;5019966;28;20927;-58
2022/04/26 04:24:27;;;;;;;7.43;3.90;;;;;;;;;;5022149;28;20045;-57
2022/04/26 04:26:53;;;;;;;6.05;3.72;;;;;;;;;;5024776;28;20132;-58
2022/04/26 04:29:22;;;;;;;4.15;3.00;;;;;;;;;;5023881;28;20136;-57
2022/04/26 04:31:49;;;;;;;5.43;3.58;;;;;;;;;;5026302;28;20136;-56
2022/04/26 04:34:16;;;;;;;9.05;3.80;;;;;;;;;;5023337;28;20060;-57
2022/04/26 04:36:46;;;;;;;9.32;3.25;;;;;;;;;;5016417;28;20128;-57
2022/04/26 04:39:19;;;;;;;4.38;3.00;;;;;;;;;;5019651;28;20136;-55
2022/04/26 04:41:46;;;;;;;7.25;3.65;;;;;;;;;;5020457;28;20542;-57
2022/04/26 04:44:17;;;;;;;5.05;2.95;;;;;;;;;;5019387;28;20045;-57
2022/04/26 04:46:43;;;;;;;5.57;3.47;;;;;;;;;;5019835;28;20077;-58
2022/04/26 04:49:10;;;;;;;5.22;3.70;;;;;;;;;;5019948;28;20161;-58
2022/04/26 04:51:37;;;;;;;6.18;3.03;;;;;;;;;;5018717;28;20466;-58
2022/04/26 04:54:04;;;;;;;5.47;3.83;;;;;;;;;;5021384;28;20085;-59
2022/04/26 04:56:31;;;;;;;5.70;3.47;;;;;;;;;;5020724;28;20124;-59
2022/04/26 04:59:04;;;;;;;4.63;2.97;;;;;;;;;;5018092;28;20045;-59
2022/04/26 05:01:31;;;;;;;3.67;2.60;;;;;;;;;;5018676;28;20056;-59
2022/04/26 05:03:57;;;;;;;3.22;2.13;;;;;;;;;;5021502;28;20133;-58
2022/04/26 05:06:24;;;;;;;3.17;2.60;;;;;;;;;;5021032;28;20064;-58
2022/04/26 05:08:50;;;;;;;5.00;1.90;;;;;;;;;;5021542;28;20140;-59
2022/04/26 05:11:17;;;;;;;3.08;1.98;;;;;;;;;;5022020;28;20081;-59
2022/04/26 05:13:44;;;;;;;;;;;;;;;;;;5020753;28;20128;-59
2022/04/26 05:16:11;;;;;;;4.15;2.38;;;;;;;;;;5020914;28;20004;-59
2022/04/26 05:18:37;;;;;;;3.03;1.98;;;;;;;;;;5020401;28;20145;-59
2022/04/26 05:21:13;;;;;;;2.95;1.92;;;;;;;;;;5022376;28;20045;-59
2022/04/26 05:26:31;;;;;;;2.45;1.67;;;;;;;;;;5022720;28;20140;-59
2022/04/26 05:28:58;;;;;;;1.40;1.30;;;;;;;;;;5021553;28;20068;-60
2022/04/26 05:31:24;;;;;;;2.75;1.85;;;;;;;;;;5017282;28;20092;-60
2022/04/26 05:33:51;;;;;;;2.25;1.60;;;;;;;;;;5015714;28;20056;-60
2022/04/26 05:36:18;;;;;;;1.35;0.90;;;;;;;;;;5022031;28;20141;-60
2022/04/26 05:38:45;;;;;;;2.17;1.00;;;;;;;;;;5019278;28;20089;-60
2022/04/26 05:41:18;;;;;;;1.33;0.70;;;;;;;;;;5018165;28;20081;-59
2022/04/26 05:43:45;;;;;;;1.17;0.68;;;;;;;;;;5021475;28;20084;-60
2022/04/26 05:46:12;;;;;;;4.50;1.00;;;;;;;;;;5019093;28;20128;-60
2022/04/26 05:48:45;;;;;;;1.50;1.30;;;;;;;;;;5020060;28;20107;-60
2022/04/26 05:51:12;;;;;;;2.08;1.00;;;;;;;;;;5022414;28;20137;-60
2022/04/26 05:53:40;;;;;;;1.23;0.60;;;;;;;;;;5022585;28;20085;-60
2022/04/26 05:56:15;;;;;;;1.95;0.82;;;;;;;;;;5022056;28;20184;-60
2022/04/26 05:58:42;;;;;;;1.42;0.60;;;;;;;;;;5017343;28;20659;-60
2022/04/26 06:01:08;;;;;;;0.88;0.60;;;;;;;;;;5020099;28;20050;-60
2022/04/26 06:03:42;;;;;;;2.08;0.60;;;;;;;;;;5022005;28;20510;-60
2022/04/26 06:06:09;;;;;;;;;;;;;;;;;;5021370;28;20073;-60
2022/04/26 06:08:35;;;;;;;2.78;0.68;;;;;;;;;;5020360;28;19967;-60
2022/04/26 06:11:02;;;;;;;1.58;0.60;;;;;;;;;;5014282;28;20141;-60
2022/04/26 06:13:35;;;;;;;1.15;0.50;;;;;;;;;;5016695;28;20096;-60
2022/04/26 06:16:01;;;;;;;0.40;0.40;;;;;;;;;;5025734;28;20073;-60
2022/04/26 06:18:28;;;;;;;0.40;0.40;;;;;;;;;;5022648;28;20759;-60
2022/04/26 06:20:56;;;;;;;0.52;0.38;;;;;;;;;;5019780;28;20073;-60
2022/04/26 06:23:22;;;;;;;0.45;0.35;;;;;;;;;;5019649;28;20133;-60
2022/04/26 06:25:49;;;;;;;0.47;0.47;;;;;;;;;;5017316;28;20133;-60
2022/04/26 06:28:22;;;;;;;0.45;0.38;;;;;;;;;;5017024;28;20085;-60
2022/04/26 06:30:48;;;;;;;2.30;0.50;;;;;;;;;;5019019;28;20057;-60
2022/04/26 06:33:17;;;;;;;1.30;0.52;;;;;;;;;;5018659;28;20065;-60
2022/04/26 06:35:50;;;;;;;0.40;0.40;;;;;;;;;;5019233;28;20077;-61
2022/04/26 06:38:17;;;;;;;0.70;0.50;;;;;;;;;;5017257;28;20049;-60
2022/04/26 06:40:46;;;;;;;0.40;0.40;;;;;;;;;;5021160;28;20548;-60
2022/04/26 06:43:13;;;;;;;0.85;0.40;;;;;;;;;;5016111;28;20101;-60
2022/04/26 06:45:40;;;;;;;1.27;0.55;;;;;;;;;;5019115;28;20066;-61
2022/04/26 06:48:10;;;;;;;0.70;0.40;;;;;;;;;;5001895;28;20564;-61
2022/04/26 06:50:40;;;;;;;2.47;0.57;;;;;;;;;;5019364;28;20145;-61
2022/04/26 06:53:07;;;;;;;4.83;0.50;;;;;;;;;;5015101;28;20160;-61
2022/04/26 06:55:34;;;;;;;0.20;0.20;;;;;;;;;;5017674;28;20137;-61
2022/04/26 06:58:01;;;;;;;3.88;0.55;;;;;;;;;;5022426;28;20081;-61
2022/04/26 07:00:28;;;;;;;2.35;0.82;;;;;;;;;;5017601;28;20060;-61
2022/04/26 07:02:55;;;;;;;1.03;0.40;;;;;;;;;;5021996;28;20136;-61
2022/04/26 07:05:28;;;;;;;1.13;0.60;;;;;;;;;;5021706;28;20055;-61
2022/04/26 07:07:55;;;;;;;2.45;0.40;;;;;;;;;;5021843;28;20132;-61
2022/04/26 07:10:22;;;;;;;0.73;0.40;;;;;;;;;;5013529;28;20148;-61
2022/04/26 07:12:49;;;;;;;1.10;0.70;;;;;;;;;;5018340;28;20089;-61
2022/04/26 07:15:15;;;;;;;2.17;0.70;;;;;;;;;;5019970;28;20140;-61
2022/04/26 07:17:42;;;;;;;0.57;0.50;;;;;;;;;;5017223;28;20137;-61
2022/04/26 07:20:09;;;;;;;1.88;0.55;;;;;;;;;;5017575;28;20057;-61
2022/04/26 07:22:36;;;;;;;0.60;0.52;;;;;;;;;;5016708;28;20133;-61
2022/04/26 07:25:04;;;;;;;1.08;0.70;;;;;;;;;;5018138;28;20085;-61
2022/04/26 07:27:30;;;;;;;2.63;0.95;;;;;;;;;;5013002;28;20168;-61
2022/04/26 07:29:57;;;;;;;0.63;0.50;;;;;;;;;;5017023;28;20064;-61
2022/04/26 07:34:20;;;;;;;0.50;0.32;;;;;;;;;;5018421;28;20678;-61
2022/04/26 07:35:16;;;;;;;1.17;0.90;;;;;;;;;;5018267;28;20049;-61
2022/04/26 07:37:43;;;;;;;1.83;0.60;;;;;;;;;;5017168;28;20093;-61
2022/04/26 07:40:12;;;;;;;1.60;0.50;;;;;;;;;;5017316;28;20132;-61
2022/04/26 07:42:38;;;;;;;0.65;0.50;;;;;;;;;;5019421;28;20073;-61
2022/04/26 07:45:05;;;;;;;0.95;0.55;;;;;;;;;;5020426;28;20136;-61
2022/04/26 07:47:32;;;;;;;1.52;0.50;;;;;;;;;;5018176;28;20046;-62
2022/04/26 07:50:02;;;;;;;1.80;0.63;;;;;;;;;;5021681;28;20092;-61
2022/04/26 07:52:29;;;;;;;2.88;0.70;;;;;;;;;;5016498;28;20084;-61
2022/04/26 07:54:55;;;;;;;2.75;0.63;;;;;;;;;;5016010;28;20104;-61
2022/04/26 07:57:23;;;;;;;0.80;0.50;;;;;;;;;;5015871;28;20088;-61
2022/04/26 07:59:49;;;;;;;1.50;0.60;;;;;;;;;;5019052;28;20133;-61
2022/04/26 08:02:16;;;;;;;0.35;0.35;;;;;;;;;;5019936;28;20050;-61
2022/04/26 08:04:45;;;;;;;1.02;0.43;;;;;;;;;;5017473;28;20065;-61
2022/04/26 08:07:11;;;;;;;0.57;0.50;;;;;;;;;;5020518;28;20628;-61
2022/04/26 08:09:39;;;;;;;4.25;0.80;;;;;;;;;;5020318;28;20085;-61
2022/04/26 08:12:06;;;;;;;1.58;0.50;;;;;;;;;;5016848;28;20046;-61
2022/04/26 08:14:33;;;;;;;2.08;0.60;;;;;;;;;;5019716;28;20076;-61
2022/04/26 08:16:59;;;;;;;0.50;0.50;;;;;;;;;;5015969;28;20056;-62
2022/04/26 08:19:26;;;;;;;0.70;0.50;;;;;;;;;;5019090;28;20053;-62
2022/04/26 08:21:53;;;;;;;1.02;0.68;;;;;;;;;;5018202;28;20164;-61
2022/04/26 08:27:30;;;;;;;0.88;0.52;;;;;;;;;;5014790;28;20100;-61
2022/04/26 08:29:58;;;;;;;2.55;0.63;;;;;;;;;;5018763;28;20111;-62
2022/04/26 08:32:41;;;;;;;3.17;1.05;;;;;;;;;;5019569;28;20072;-62
2022/04/26 08:35:10;;;;;;;2.65;0.60;;;;;;;;;;5016648;28;20050;-62
2022/04/26 08:37:43;;;;;;;0.88;0.60;;;;;;;;;;5015807;28;20053;-61
2022/04/26 08:40:10;;;;;;;2.17;0.60;;;;;;;;;;5021569;28;20084;-62
2022/04/26 08:42:37;;;;;;;2.35;0.63;;;;;;;;;;5020279;28;20128;-62
2022/04/26 08:45:17;;;;;;;3.60;0.60;;;;;;;;;;5020965;28;20137;-61
2022/04/26 08:53:21;;;;;;;0.98;0.52;;;;;;;;;;5027985;28;20517;-62
2022/04/26 08:55:49;;;;;;;0.93;0.60;;;;;;;;;;5020996;28;20458;-62
2022/04/26 08:58:16;;;;;;;4.10;1.20;;;;;;;;;;5018375;28;20576;-62
2022/04/26 09:01:03;;;;;;;1.20;0.68;;;;;;;;;;5022745;28;20092;-62
2022/04/26 09:03:38;;;;;;;1.08;0.40;;;;;;;;;;5021782;28;20054;-62
2022/04/26 09:06:09;;;;;;;2.03;0.60;;;;;;;;;;5019424;28;20509;-62
2022/04/26 09:08:35;;;;;;;0.80;0.65;;;;;;;;;;5020716;28;20631;-62
2022/04/26 09:11:03;;;;;;;1.45;0.70;;;;;;;;;;5021718;28;20487;-62
2022/04/26 09:13:40;;;;;;;1.40;0.50;;;;;;;;;;5026476;28;20103;-62
2022/04/26 09:16:14;;;;;;;1.60;0.52;;;;;;;;;;5020066;28;20058;-63
2022/04/26 09:18:48;;;;;;;2.42;0.80;;;;;;;;;;5022717;28;20045;-62
2022/04/26 09:21:18;;;;;;;1.83;0.77;;;;;;;;;;5020111;28;20505;-62
2022/04/26 09:23:45;;;;;;;2.63;0.70;;;;;;;;;;5019925;28;20132;-63
2022/04/26 09:26:12;;;;;;;1.60;0.47;;;;;;;;;;5017850;28;20570;-62
2022/04/26 09:28:48;;;;;;;2.58;0.63;;;;;;;;;;5020420;28;20049;-63
2022/04/26 09:31:18;;;;;;;1.00;0.50;;;;;;;;;;5021737;28;20104;-63
2022/04/26 09:33:51;;;;;;;1.30;0.60;;;;;;;;;;5022104;28;20103;-63
2022/04/26 09:36:19;;;;;;;2.75;0.60;;;;;;;;;;5018241;28;20140;-63
2022/04/26 09:38:50;;;;;;;2.40;0.65;;;;;;;;;;5018565;28;20081;-63
2022/04/26 09:41:16;;;;;;;1.25;0.52;;;;;;;;;;5023290;28;20132;-63
2022/04/26 09:43:43;;;;;;;3.00;0.75;;;;;;;;;;5023017;28;20133;-63
2022/04/26 09:46:21;;;;;;;0.60;0.50;;;;;;;;;;5019554;28;20129;-63
2022/04/26 09:48:48;;;;;;;1.20;0.70;;;;;;;;;;5023093;28;20065;-63
2022/04/26 09:51:14;;;;;;;3.17;0.65;;;;;;;;;;5018485;28;20053;-63
2022/04/26 09:53:41;;;;;;;1.17;0.70;;;;;;;;;;5021565;28;20145;-64
2022/04/26 09:56:08;;;;;;;0.98;0.68;;;;;;;;;;5021280;28;20138;-63
2022/04/26 09:58:49;;;;;;;1.92;0.70;;;;;;;;;;5017824;28;20049;-63
2022/04/26 10:01:16;;;;;;;2.85;0.90;;;;;;;;;;5018625;28;20498;-64
2022/04/26 10:03:45;;;;;;;5.93;0.80;;;;;;;;;;5017359;28;20064;-61
2022/04/26 10:06:16;;;;;;;4.47;0.98;;;;;;;;;;5023765;28;20112;-61
2022/04/26 10:08:43;;;;;;;1.52;0.77;;;;;;;;;;5022728;28;20061;-61
2022/04/26 10:11:10;;;;;;;1.75;0.57;;;;;;;;;;5019198;28;20053;-62
2022/04/26 10:13:42;;;;;;;1.23;0.50;;;;;;;;;;5018790;28;20045;-63
2022/04/26 10:16:11;;;;;;;3.88;0.63;;;;;;;;;;5021989;28;20469;-63
2022/04/26 10:18:45;;;;;;;2.83;0.60;;;;;;;;;;5022045;28;20053;-63
2022/04/26 10:21:12;;;;;;;1.27;0.80;;;;;;;;;;5024516;28;20077;-63
2022/04/26 10:23:51;;;;;;;0.95;0.47;;;;;;;;;;5020605;28;20141;-63
2022/04/26 10:28:51;;;;;;;1.30;0.60;;;;;;;;;;5017444;28;20073;-63
2022/04/26 10:31:17;;;;;;;3.08;0.88;;;;;;;;;;5017167;28;20054;-63
2022/04/26 10:33:47;;;;;;;1.85;0.77;;;;;;;;;;5020819;28;20993;-63
2022/04/26 10:36:19;;;;;;;1.30;0.73;;;;;;;;;;5017390;28;20128;-63
2022/04/26 10:39:05;;;;;;;3.17;0.52;;;;;;;;;;5018981;28;20085;-64
2022/04/26 10:41:33;;;;;;;1.55;0.70;;;;;;;;;;5018899;28;20095;-64
2022/04/26 10:44:12;;;;;;;0.60;0.60;;;;;;;;;;5018997;28;20085;-64
2022/04/26 10:46:39;;;;;;;3.22;0.82;;;;;;;;;;5021468;28;20057;-64
2022/04/26 10:49:35;;;;;;;3.97;0.80;;;;;;;;;;5018882;28;20080;-64
2022/04/26 10:52:25;;;;;;;3.20;0.50;;;;;;;;;;5008989;28;20497;-64
2022/04/26 10:54:53;;;;;;;1.90;0.67;;;;;;;;;;5018195;28;20124;-64
2022/04/26 10:57:30;;;;;;;2.95;1.08;;;;;;;;;;5018375;28;20099;-64
2022/04/26 11:00:04;;;;;;;0.82;0.60;;;;;;;;;;5019669;28;20118;-64
2022/04/26 11:02:39;;;;;;;1.83;0.50;;;;;;;;;;5020493;28;20077;-63
2022/04/26 11:05:08;;;;;;;0.95;0.55;;;;;;;;;;5018811;28;20092;-64
2022/04/26 11:07:35;;;;;;;1.70;0.60;;;;;;;;;;5017806;28;20045;-64
2022/04/26 11:10:04;;;;;;;1.67;0.50;;;;;;;;;;5016320;28;20080;-64
2022/04/26 11:12:33;;;;;;;1.13;0.60;;;;;;;;;;5017293;28;20182;-64
2022/04/26 11:15:03;;;;;;;1.52;0.82;;;;;;;;;;5017115;28;20129;-64
2022/04/26 11:17:30;;;;;;;2.15;0.90;;;;;;;;;;5019360;28;20053;-64
2022/04/26 11:19:57;;;;;;;3.20;0.90;;;;;;;;;;5017629;28;20133;-64
2022/04/26 11:22:30;;;;;;;2.05;0.65;;;;;;;;;;5015959;28;20081;-62
2022/04/26 11:28:09;;;;;;;2.40;1.00;;;;;;;;;;5018112;28;20065;-64
2022/04/26 11:30:39;;;;;;;1.33;0.60;;;;;;;;;;5019258;28;20399;-64
2022/04/26 11:33:08;;;;;;;2.08;0.60;;;;;;;;;;5019881;28;20053;-64
2022/04/26 11:35:35;;;;;;;1.17;0.63;;;;;;;;;;5019071;28;21660;-64
2022/04/26 11:38:13;;;;;;;1.63;0.70;;;;;;;;;;5016559;28;20687;-64
2022/04/26 11:40:41;;;;;;;0.50;0.40;;;;;;;;;;5018867;28;20516;-64
2022/04/26 11:43:11;;;;;;;1.17;0.45;;;;;;;;;;5019053;28;20130;-64
2022/04/26 11:45:39;;;;;;;0.43;0.43;;;;;;;;;;5019511;28;20524;-64
2022/04/26 11:48:09;;;;;;;0.82;0.50;;;;;;;;;;5019185;28;20061;-63
2022/04/26 11:50:36;;;;;;;1.10;0.50;;;;;;;;;;5015430;28;20552;-63
2022/04/26 11:53:07;;;;;;;2.13;0.82;;;;;;;;;;5013219;28;20119;-64
2022/04/26 11:55:40;;;;;;;;;;;;;;;;;;5018389;28;20081;-63
2022/04/26 11:58:10;;;;;;;0.77;0.70;;;;;;;;;;5021347;28;20428;-64
2022/04/26 12:00:48;;;;;;;2.10;0.50;;;;;;;;;;5014549;28;20099;-64
2022/04/26 12:03:16;;;;;;;1.33;0.70;;;;;;;;;;5017170;28;20200;-64
2022/04/26 12:05:43;;;;;;;1.25;0.68;;;;;;;;;;4999103;28;20118;-64
2022/04/26 12:08:10;;;;;;;1.10;0.65;;;;;;;;;;5017394;28;20584;-64
2022/04/26 12:10:37;;;;;;;2.75;0.77;;;;;;;;;;5020091;28;20152;-64
2022/04/26 12:13:05;;;;;;;3.05;0.57;;;;;;;;;;5016094;28;20224;-64
2022/04/26 12:15:35;;;;;;;1.25;0.70;;;;;;;;;;5018844;28;20057;-64
2022/04/26 12:18:10;;;;;;;1.38;0.90;;;;;;;;;;5020314;28;20092;-64
2022/04/26 12:20:54;;;;;;;1.42;0.55;;;;;;;;;;5021186;28;20085;-64
2022/04/26 12:23:28;;;;;;;2.38;0.75;;;;;;;;;;5025362;28;20087;-64
2022/04/26 12:26:02;;;;;;;1.05;0.77;;;;;;;;;;5020992;28;20137;-64
2022/04/26 12:28:49;;;;;;;2.35;0.70;;;;;;;;;;5023816;28;20141;-64
2022/04/26 12:31:22;;;;;;;2.58;0.60;;;;;;;;;;5020236;28;20707;-65
2022/04/26 12:34:12;;;;;;;2.80;0.95;;;;;;;;;;5027449;28;20452;-64
2022/04/26 12:36:56;;;;;;;1.10;0.65;;;;;;;;;;5023738;28;20053;-64
2022/04/26 12:39:23;;;;;;;2.30;1.00;;;;;;;;;;5023334;28;20128;-64
2022/04/26 12:41:51;;;;;;;3.55;0.80;;;;;;;;;;5025015;28;20046;-64
2022/04/26 12:44:18;;;;;;;1.23;0.65;;;;;;;;;;5021974;28;20502;-64
2022/04/26 12:52:47;;;;;;;3.70;0.98;;;;;;;;;;5020527;28;20492;-64
2022/04/26 12:55:13;;;;;;;;;;;;;;;;;;5021823;28;20143;-64
2022/04/26 12:57:47;;;;;;;1.10;0.80;;;;;;;;;;5024523;28;19925;-64
2022/04/26 13:00:21;;;;;;;1.13;0.60;;;;;;;;;;5023916;28;20092;-64
2022/04/26 13:02:48;;;;;;;1.05;0.70;;;;;;;;;;5020876;28;20073;-64
2022/04/26 13:05:16;;;;;;;1.88;0.73;;;;;;;;;;5022201;28;20064;-63
2022/04/26 13:07:46;;;;;;;0.90;0.80;;;;;;;;;;5020929;28;20049;-64
2022/04/26 13:10:13;;;;;;;0.90;0.68;;;;;;;;;;5020604;28;20132;-64
2022/04/26 13:12:39;;;;;;;1.58;0.60;;;;;;;;;;5018056;28;20172;-64
2022/04/26 13:15:15;;;;;;;0.95;0.60;;;;;;;;;;5021522;28;20452;-64
2022/04/26 13:17:41;;;;;;;6.22;0.65;;;;;;;;;;5022020;28;20146;-64
2022/04/26 13:20:10;;;;;;;6.32;0.95;;;;;;;;;;5021978;28;20060;-64
2022/04/26 13:22:37;;;;;;;0.80;0.60;;;;;;;;;;5020977;28;20146;-64
2022/04/26 13:25:04;;;;;;;0.82;0.50;;;;;;;;;;5017100;28;20161;-63
2022/04/26 13:27:31;;;;;;;0.70;0.52;;;;;;;;;;5020087;28;20481;-64
2022/04/26 13:29:58;;;;;;;0.88;0.60;;;;;;;;;;5018328;28;20077;-64
2022/04/26 13:32:25;;;;;;;1.20;0.80;;;;;;;;;;5015848;28;20140;-64
2022/04/26 13:34:52;;;;;;;1.92;0.90;;;;;;;;;;5019856;28;20148;-64
2022/04/26 13:37:21;;;;;;;0.75;0.50;;;;;;;;;;5006257;28;20045;-64
2022/04/26 13:39:49;;;;;;;3.45;0.75;;;;;;;;;;5021941;28;20136;-64
2022/04/26 13:42:17;;;;;;;2.72;1.00;;;;;;;;;;5019817;28;20057;-63
2022/04/26 13:44:45;;;;;;;1.33;0.90;;;;;;;;;;5020774;28;20049;-64
2022/04/26 13:47:11;;;;;;;2.28;0.90;;;;;;;;;;5018936;28;20081;-63
2022/04/26 13:49:39;;;;;;;2.30;0.90;;;;;;;;;;5017134;28;20100;-63
2022/04/26 13:52:15;;;;;;;2.13;0.68;;;;;;;;;;5022643;28;20136;-64
2022/04/26 13:54:42;;;;;;;1.73;0.80;;;;;;;;;;5017553;28;20097;-63
2022/04/26 13:57:09;;;;;;;2.08;0.80;;;;;;;;;;5018638;28;20093;-64
2022/04/26 13:59:43;;;;;;;4.40;1.10;;;;;;;;;;5024198;28;20084;-63
2022/04/26 14:02:10;;;;;;;;;;;;;;;;;;5021369;28;20064;-63
2022/04/26 14:04:36;;;;;;;0.63;0.52;;;;;;;;;;5018605;28;19929;-63
2022/04/26 14:07:03;;;;;;;3.05;0.68;;;;;;;;;;5021491;28;20128;-63
2022/04/26 14:09:30;;;;;;;1.17;0.77;;;;;;;;;;5023262;28;20171;-63
2022/04/26 14:11:57;;;;;;;1.45;0.68;;;;;;;;;;5018211;28;20567;-63
2022/04/26 14:22:46;;;;;;;1.35;0.60;;;;;;;;;;5021741;28;20132;-63
2022/04/26 14:25:14;;;;;;;1.52;0.63;;;;;;;;;;5017273;28;20137;-63
2022/04/26 14:27:42;;;;;;;2.17;0.80;;;;;;;;;;5019152;28;20077;-63
2022/04/26 14:30:10;;;;;;;3.65;1.00;;;;;;;;;;5018488;28;20863;-63
2022/04/26 14:33:03;;;;;;;3.83;0.80;;;;;;;;;;5020627;28;20053;-60
2022/04/26 14:35:32;;;;;;;1.17;0.75;;;;;;;;;;5020361;28;20135;-62
2022/04/26 14:38:00;;;;;;;4.45;0.90;;;;;;;;;;5021582;28;20091;-62
2022/04/26 14:40:27;;;;;;;1.15;0.77;;;;;;;;;;5022040;28;20049;-60
2022/04/26 14:42:54;;;;;;;3.58;0.95;;;;;;;;;;5019716;28;20099;-60
2022/04/26 14:45:21;;;;;;;1.35;0.60;;;;;;;;;;5025700;28;20049;-60
2022/04/26 14:47:48;;;;;;;1.58;0.60;;;;;;;;;;5018036;28;20050;-60
2022/04/26 14:50:17;;;;;;;2.30;0.90;;;;;;;;;;5020083;28;20480;-60
2022/04/26 14:52:45;;;;;;;1.75;1.00;;;;;;;;;;5019935;28;20054;-60
2022/04/26 14:55:12;;;;;;;1.80;0.70;;;;;;;;;;5019916;28;20133;-62
2022/04/26 14:57:38;;;;;;;1.17;0.63;;;;;;;;;;5021243;28;20100;-62
2022/04/26 15:00:07;;;;;;;1.25;0.60;;;;;;;;;;5019392;28;20281;-61
2022/04/26 15:02:38;;;;;;;6.53;0.98;;;;;;;;;;5019002;28;20076;-62
2022/04/26 15:05:07;;;;;;;1.10;0.70;;;;;;;;;;5020783;28;20426;-60
2022/04/26 15:09:42;;;;;;;5.43;1.02;;;;;;;;;;5019353;28;20589;-60
2022/04/26 15:10:20;;;;;;;1.42;0.50;;;;;;;;;;5024000;28;20588;-60
2022/04/26 15:18:21;;;;;;;1.90;1.13;;;;;;;;;;5018457;28;20042;-61
2022/04/26 15:20:53;;;;;;;;;;;;;;;;;;5019194;28;20141;-60
2022/04/26 15:23:20;;;;;;;1.35;0.68;;;;;;;;;;5018044;28;20005;-60
2022/04/26 15:25:55;;;;;;;1.85;0.90;;;;;;;;;;5018445;28;20133;-60
2022/04/26 15:28:22;;;;;;;2.42;0.88;;;;;;;;;;5019834;28;20132;-60
2022/04/26 15:30:50;;;;;;;1.58;0.70;;;;;;;;;;5017421;28;20095;-60
2022/04/26 15:33:17;;;;;;;5.95;1.00;;;;;;;;;;5020483;28;20169;-60
2022/04/26 15:35:45;;;;;;;2.78;0.75;;;;;;;;;;5020092;28;20125;-60
2022/04/26 15:38:12;;;;;;;1.75;0.70;;;;;;;;;;5016658;28;20161;-60
2022/04/26 15:40:40;;;;;;;2.50;1.05;;;;;;;;;;5013046;28;20136;-60
2022/04/26 15:43:06;;;;;;;;;;;;;;;;;;5017163;28;20164;-60
2022/04/26 15:45:33;;;;;;;0.98;0.80;;;;;;;;;;5019823;28;19987;-60
2022/04/26 15:48:00;;;;;;;1.75;0.90;;;;;;;;;;5018150;28;20141;-60
2022/04/26 15:50:29;;;;;;;1.02;0.73;;;;;;;;;;5026448;28;20160;-60
2022/04/26 15:52:55;;;;;;;2.33;1.00;;;;;;;;;;5020836;28;20085;-60
2022/04/26 15:55:22;;;;;;;1.13;1.00;;;;;;;;;;5023338;28;20132;-60
2022/04/26 15:57:50;;;;;;;1.63;0.82;;;;;;;;;;5020392;28;20124;-60
2022/04/26 16:00:18;;;;;;;1.75;0.82;;;;;;;;;;5022692;28;20136;-60
2022/04/26 16:02:44;;;;;;;1.55;0.70;;;;;;;;;;5021243;28;20053;-60
2022/04/26 16:05:19;;;;;;;1.15;0.50;;;;;;;;;;5023596;28;20077;-60
2022/04/26 16:07:48;;;;;;;1.27;1.00;;;;;;;;;;5021987;28;20387;-60
2022/04/26 16:21:25;;;;;;;1.92;0.80;;;;;;;;;;5023119;28;20070;-60
2022/04/26 16:23:54;;;;;;;2.00;0.73;;;;;;;;;;5016222;28;20140;-60
2022/04/26 16:26:22;;;;;;;2.20;0.80;;;;;;;;;;5023053;28;20046;-60
2022/04/26 16:28:48;;;;;;;2.40;0.85;;;;;;;;;;5020596;28;20137;-60
2022/04/26 16:31:16;;;;;;;11.23;1.30;;;;;;;;;;5024074;28;20129;-60
2022/04/26 16:33:42;;;;;;;3.38;0.75;;;;;;;;;;5022382;28;20050;-60
2022/04/26 16:36:11;;;;;;;1.13;0.90;;;;;;;;;;5021218;28;20089;-60
2022/04/26 16:38:40;;;;;;;3.95;0.90;;;;;;;;;;5019561;28;20068;-60
2022/04/26 16:41:07;;;;;;;1.30;0.93;;;;;;;;;;5023682;28;20140;-60
2022/04/26 16:43:33;;;;;;;4.70;0.88;;;;;;;;;;5021491;28;20123;-60
2022/04/26 16:46:07;;;;;;;1.65;0.98;;;;;;;;;;5012334;28;20100;-60
2022/04/26 16:48:35;;;;;;;4.80;1.15;;;;;;;;;;5020086;28;20084;-60
2022/04/26 16:51:01;;;;;;;4.50;1.25;;;;;;;;;;5024911;28;20085;-60
2022/04/26 16:53:32;;;;;;;1.40;0.85;;;;;;;;;;5018239;28;20158;-60
2022/04/26 16:55:58;;;;;;;1.10;0.88;;;;;;;;;;5021790;28;20136;-60
2022/04/26 16:58:25;;;;;;;2.00;1.10;;;;;;;;;;5021230;28;20137;-60
2022/04/26 17:00:57;;;;;;;2.20;0.98;;;;;;;;;;5020569;28;20137;-60
2022/04/26 17:03:24;;;;;;;1.35;1.15;;;;;;;;;;5021503;28;20094;-60
2022/04/26 17:05:50;;;;;;;1.48;0.90;;;;;;;;;;5020016;28;20054;-60
2022/04/26 17:08:18;;;;;;;;;;;;;;;;;;5023686;28;20077;-60
2022/04/26 17:10:45;;;;;;;3.15;1.17;;;;;;;;;;5021172;28;20309;-60
2022/04/26 17:13:12;;;;;;;;;;;;;;;;;;5021591;28;20657;-60
2022/04/26 17:15:39;;;;;;;2.42;1.38;;;;;;;;;;5021682;28;20012;-59
2022/04/26 17:18:06;;;;;;;1.90;0.73;;;;;;;;;;5021004;28;20100;-60
2022/04/26 17:20:33;;;;;;;1.23;0.93;;;;;;;;;;5022810;28;20611;-60
2022/04/26 17:23:00;;;;;;;4.68;0.93;;;;;;;;;;5017664;28;20549;-60
2022/04/26 17:25:27;;;;;;;2.35;0.93;;;;;;;;;;5022954;28;20128;-60
2022/04/26 17:28:10;;;;;;;3.03;0.95;;;;;;;;;;5016410;28;20057;-60
2022/04/26 17:30:37;;;;;;;1.52;0.90;;;;;;;;;;5023304;28;20156;-60
2022/04/26 17:33:04;;;;;;;0.80;0.70;;;;;;;;;;5020475;28;20120;-60
2022/04/26 17:35:31;;;;;;;3.10;1.58;;;;;;;;;;5019811;28;20073;-60
2022/04/26 17:37:58;;;;;;;1.98;0.88;;;;;;;;;;5021429;28;20054;-60
2022/04/26 17:40:24;;;;;;;1.50;1.00;;;;;;;;;;5020702;28;20042;-60
2022/04/26 17:42:51;;;;;;;5.63;1.00;;;;;;;;;;5021311;28;20080;-60
2022/04/26 17:45:17;;;;;;;1.35;0.90;;;;;;;;;;5017009;28;20501;-60
2022/04/26 17:47:44;;;;;;;2.35;0.93;;;;;;;;;;5022288;28;20055;-60
2022/04/26 17:50:10;;;;;;;4.40;1.17;;;;;;;;;;5023914;28;20799;-60
2022/04/26 17:56:28;;;;;;;3.03;1.20;;;;;;;;;;5020666;28;20065;-60
2022/04/26 17:58:09;;;;;;;3.60;1.50;;;;;;;;;;5019079;28;20077;-60
2022/04/26 18:00:36;;;;;;;1.98;1.30;;;;;;;;;;5021267;28;20504;-60
2022/04/26 18:03:02;;;;;;;1.97;1.50;;;;;;;;;;5019624;28;20495;-60
2022/04/26 18:05:29;;;;;;;1.83;1.20;;;;;;;;;;5018386;28;20823;-60
2022/04/26 18:07:56;;;;;;;4.10;1.40;;;;;;;;;;5016571;28;20138;-59
2022/04/26 18:10:22;;;;;;;2.53;1.27;;;;;;;;;;5018039;28;20556;-59
2022/04/26 18:12:50;;;;;;;2.13;1.30;;;;;;;;;;5016034;28;20132;-59
2022/04/26 18:15:16;;;;;;;2.17;1.30;;;;;;;;;;5020542;28;20470;-59
2022/04/26 18:17:42;;;;;;;3.85;1.48;;;;;;;;;;5021905;28;20117;-60
2022/04/26 18:20:09;;;;;;;1.90;1.10;;;;;;;;;;5017243;28;20053;-59
2022/04/26 18:22:36;;;;;;;2.88;1.27;;;;;;;;;;5020467;28;20049;-60
2022/04/26 18:25:03;;;;;;;2.58;1.23;;;;;;;;;;5013734;28;20120;-60
2022/04/26 18:27:29;;;;;;;2.08;1.10;;;;;;;;;;5018016;28;20112;-60
2022/04/26 18:29:57;;;;;;;2.05;1.10;;;;;;;;;;5017576;28;20584;-60
2022/04/26 18:32:23;;;;;;;2.38;1.30;;;;;;;;;;5015386;28;20794;-59
2022/04/26 18:34:50;;;;;;;;;;;;;;;;;;5018537;28;20072;-60
2022/04/26 18:37:17;;;;;;;3.97;1.00;;;;;;;;;;5016611;28;19925;-60
2022/04/26 18:39:44;;;;;;;3.15;0.93;;;;;;;;;;5019458;28;20057;-60
2022/04/26 18:42:11;;;;;;;2.45;1.15;;;;;;;;;;5014503;28;20136;-59
2022/04/26 18:44:37;;;;;;;8.07;1.08;;;;;;;;;;5021715;28;20140;-60
2022/04/26 18:47:04;;;;;;;4.68;1.30;;;;;;;;;;5019082;28;20054;-59
2022/04/26 18:49:33;;;;;;;;;;;;;;;;;;5018939;28;20843;-59
2022/04/26 18:52:00;;;;;;;1.05;0.90;;;;;;;;;;5015037;28;19956;-59
2022/04/26 18:54:26;;;;;;;3.30;1.30;;;;;;;;;;5020570;28;20080;-59
2022/04/26 18:56:54;;;;;;;2.63;1.35;;;;;;;;;;5019896;28;20628;-60
2022/04/26 18:59:21;;;;;;;5.32;1.08;;;;;;;;;;5019403;28;20084;-60
2022/04/26 19:01:48;;;;;;;4.90;1.58;;;;;;;;;;5020576;28;20049;-58
2022/04/26 19:04:17;;;;;;;2.47;0.93;;;;;;;;;;5019766;28;20136;-59
2022/04/26 19:06:44;;;;;;;2.40;1.10;;;;;;;;;;5017691;28;20133;-59
2022/04/26 19:09:10;;;;;;;3.28;1.17;;;;;;;;;;5015373;28;20085;-59
2022/04/26 19:14:22;;;;;;;1.85;1.08;;;;;;;;;;5017076;28;20514;-59
2022/04/26 19:16:49;;;;;;;;;;;;;;;;;;5015948;28;20092;-61
2022/04/26 19:19:19;;;;;;;1.80;0.93;;;;;;;;;;5018375;28;19968;-61
2022/04/26 19:21:45;;;;;;;2.35;1.30;;;;;;;;;;5019618;28;20080;-59
2022/04/26 19:24:25;;;;;;;2.97;1.05;;;;;;;;;;5016182;28;20104;-61
2022/04/26 19:26:51;;;;;;;1.58;1.30;;;;;;;;;;5019820;28;20073;-61
2022/04/26 19:29:18;;;;;;;2.05;1.05;;;;;;;;;;5024230;28;20083;-61